Time;durP1;ratioP1;P1;durP2;ratioP2;P2;SDS_P1;SDS_P2;PMS_P1;PMS_P2;Temp;Humidity;BMP_temperature;BMP_pressure;BME280_temperature;BME280_humidity;BME280_pressure;Samples;Min_cycle;Max_cycle;Signal;HPM_P1;HPM_P2
2021/05/23 00:01:26;;;;;;;2.35;1.28;;;;;;;9.49;73.72;96400.95;127701;1101;35466;-87
2021/05/23 00:03:56;;;;;;;4.98;1.93;;;;;;;9.48;73.95;96391.44;127728;1101;22779;-86
2021/05/23 00:06:26;;;;;;;2.80;1.28;;;;;;;9.47;74.01;96391.72;127662;1101;29760;-85
2021/05/23 00:08:56;;;;;;;2.57;1.27;;;;;;;9.45;73.89;96389.34;127409;1102;28729;-88
2021/05/23 00:11:26;;;;;;;1.97;1.00;;;;;;;9.43;73.71;96394.13;127532;1101;24540;-87
2021/05/23 00:13:56;;;;;;;2.88;1.38;;;;;;;9.38;73.70;96394.15;127673;1101;22925;-86
2021/05/23 00:16:27;;;;;;;3.85;1.50;;;;;;;9.34;73.91;96387.05;127651;1101;24173;-88
2021/05/23 00:18:57;;;;;;;3.78;1.45;;;;;;;9.33;74.32;96391.55;127722;1101;28194;-85
2021/05/23 00:21:27;;;;;;;3.35;1.78;;;;;;;9.36;74.43;96385.70;127752;1101;24102;-87
2021/05/23 00:23:57;;;;;;;2.70;1.68;;;;;;;9.39;74.19;96395.73;127745;1096;23791;-87
2021/05/23 00:26:27;;;;;;;3.88;1.63;;;;;;;9.38;74.20;96388.86;127630;1101;85366;-87
2021/05/23 00:28:56;;;;;;;5.23;1.58;;;;;;;9.35;74.19;96386.77;127753;1101;23311;-89
2021/05/23 00:31:26;;;;;;;2.00;1.50;;;;;;;9.34;74.48;96393.13;127663;1101;24771;-86
2021/05/23 00:33:58;;;;;;;2.33;1.38;;;;;;;9.29;73.94;96390.53;127733;1101;22776;-85
2021/05/23 00:36:28;;;;;;;3.68;1.25;;;;;;;9.23;74.34;96392.39;127774;1101;22807;-88
2021/05/23 00:38:58;;;;;;;3.35;1.38;;;;;;;9.18;74.29;96391.65;127769;1101;32905;-86
2021/05/23 00:41:28;;;;;;;3.55;1.30;;;;;;;9.12;74.37;96403.30;127851;1101;22945;-87
2021/05/23 00:43:58;;;;;;;1.58;1.30;;;;;;;9.05;74.25;96398.33;127723;1101;38206;-87
2021/05/23 00:46:29;;;;;;;1.90;1.20;;;;;;;9.04;74.05;96393.32;127714;1096;28922;-88
2021/05/23 00:48:59;;;;;;;2.65;1.30;;;;;;;9.05;74.04;96390.40;127701;1094;27218;-88
2021/05/23 00:51:28;;;;;;;2.50;1.45;;;;;;;9.00;74.31;96394.91;127659;1101;29211;-86
2021/05/23 00:53:58;;;;;;;4.30;1.20;;;;;;;8.96;74.31;96388.59;127688;1101;23164;-88
2021/05/23 00:56:28;;;;;;;1.48;1.08;;;;;;;8.91;74.12;96389.42;127778;1101;22911;-88
2021/05/23 00:58:58;;;;;;;3.58;1.48;;;;;;;8.88;74.11;96390.77;127767;1101;24201;-87
2021/05/23 01:02:03;;;;;;;5.93;1.53;;;;;;;8.86;74.37;96392.06;127723;1097;23451;-87
2021/05/23 01:04:34;;;;;;;2.28;1.13;;;;;;;8.81;74.48;96384.96;127790;1101;22910;-84
2021/05/23 01:07:04;;;;;;;2.23;1.13;;;;;;;8.78;74.85;96377.59;127842;1096;23518;-86
2021/05/23 01:09:34;;;;;;;2.28;1.10;;;;;;;8.77;74.76;96373.36;127752;1101;29111;-85
2021/05/23 01:12:32;;;;;;;3.40;1.27;;;;;;;8.77;74.84;96376.00;127773;1101;29949;-86
2021/05/23 01:15:03;;;;;;;2.93;1.23;;;;;;;8.77;75.10;96383.94;127739;1096;24549;-89
2021/05/23 01:17:45;;;;;;;4.53;1.43;;;;;;;8.75;75.03;96383.42;127849;1101;23943;-87
2021/05/23 01:20:27;;;;;;;3.28;1.20;;;;;;;8.74;75.38;96381.05;127859;1095;26236;-88
2021/05/23 01:23:25;;;;;;;2.30;1.28;;;;;;;8.73;75.55;96382.91;127700;1101;26129;-86
2021/05/23 01:26:04;;;;;;;3.25;1.60;;;;;;;8.71;75.48;96389.50;127691;1101;32965;-87
2021/05/23 01:28:39;;;;;;;5.53;1.25;;;;;;;8.70;76.11;96401.92;127823;1101;28437;-85
2021/05/23 01:31:11;;;;;;;2.67;1.17;;;;;;;8.67;75.62;96394.55;127809;1101;23418;-85
2021/05/23 01:33:42;;;;;;;3.23;1.50;;;;;;;8.67;75.81;96391.91;127747;1101;28798;-85
2021/05/23 01:36:12;;;;;;;3.05;1.33;;;;;;;8.66;75.86;96394.81;127748;1101;23495;-84
2021/05/23 01:38:42;;;;;;;3.00;1.25;;;;;;;8.63;76.02;96398.80;127672;1101;28674;-86
2021/05/23 01:41:13;;;;;;;2.57;1.07;;;;;;;8.59;75.84;96395.91;127755;1101;25457;-86
2021/05/23 01:43:43;;;;;;;2.57;1.27;;;;;;;8.59;76.01;96384.55;127624;1096;35482;-85
2021/05/23 01:46:14;;;;;;;3.38;1.43;;;;;;;8.58;76.00;96390.87;127769;1101;25248;-86
2021/05/23 01:48:45;;;;;;;1.20;1.00;;;;;;;8.55;76.53;96397.48;127788;1101;24362;-87
2021/05/23 01:51:15;;;;;;;3.10;1.33;;;;;;;8.53;76.44;96399.61;127809;1101;25450;-84
2021/05/23 01:53:45;;;;;;;3.10;1.55;;;;;;;8.52;76.30;96392.75;127754;1097;25979;-85
2021/05/23 01:56:15;;;;;;;3.43;1.35;;;;;;;8.48;76.22;96399.64;127736;1101;25366;-88
2021/05/23 01:58:45;;;;;;;5.85;1.15;;;;;;;8.48;76.68;96406.78;127756;1101;26540;-85
2021/05/23 02:01:16;;;;;;;2.97;1.30;;;;;;;8.44;76.84;96403.08;127705;1101;42551;-87
2021/05/23 02:03:46;;;;;;;2.35;1.20;;;;;;;8.37;76.63;96406.02;127781;1101;33122;-87
2021/05/23 02:06:16;;;;;;;3.63;1.10;;;;;;;8.32;76.79;96414.72;127671;1101;26838;-85
2021/05/23 02:08:47;;;;;;;2.65;1.35;;;;;;;8.32;76.84;96409.44;127744;1096;25773;-88
2021/05/23 02:11:17;;;;;;;2.85;1.23;;;;;;;8.37;76.89;96413.94;127832;1101;24366;-86
2021/05/23 02:13:53;;;;;;;2.40;1.30;;;;;;;8.37;77.08;96415.78;127786;1101;26946;-88
2021/05/23 02:16:23;;;;;;;3.18;1.00;;;;;;;8.36;76.85;96411.56;127780;1101;33067;-88
2021/05/23 02:18:53;;;;;;;1.30;0.90;;;;;;;8.29;77.20;96409.95;127767;1101;40185;-90
2021/05/23 02:21:23;;;;;;;1.15;1.05;;;;;;;8.25;77.15;96410.77;127754;1101;23120;-90
2021/05/23 02:23:55;;;;;;;2.60;1.10;;;;;;;8.21;77.24;96413.16;127706;1101;32387;-90
2021/05/23 02:26:25;;;;;;;1.58;1.20;;;;;;;8.20;77.47;96405.50;127733;1101;33887;-86
2021/05/23 02:28:55;;;;;;;2.30;1.25;;;;;;;8.22;77.35;96416.58;127753;1101;23874;-87
2021/05/23 02:31:25;;;;;;;2.13;1.03;;;;;;;8.17;77.10;96411.33;127670;1101;28944;-89
2021/05/23 02:33:55;;;;;;;2.18;0.93;;;;;;;8.13;76.79;96416.33;127617;1101;29885;-85
2021/05/23 02:36:25;;;;;;;4.58;1.65;;;;;;;8.13;77.26;96418.97;127717;1101;23230;-85
2021/05/23 02:38:55;;;;;;;2.68;0.93;;;;;;;8.14;77.53;96411.83;127751;1101;22797;-85
2021/05/23 02:41:25;;;;;;;2.73;1.08;;;;;;;8.14;77.57;96407.34;127695;1101;32068;-85
2021/05/23 02:43:55;;;;;;;2.95;0.98;;;;;;;8.16;77.71;96415.00;127760;1101;22853;-88
2021/05/23 02:46:24;;;;;;;4.00;1.40;;;;;;;8.16;77.66;96412.36;127793;1096;24061;-86
2021/05/23 02:48:57;;;;;;;3.68;1.20;;;;;;;8.18;77.66;96423.47;127730;1101;28537;-85
2021/05/23 02:51:27;;;;;;;1.85;0.98;;;;;;;8.18;77.45;96415.55;127671;1101;30654;-83
2021/05/23 02:53:57;;;;;;;4.30;1.18;;;;;;;8.24;77.29;96417.89;127724;1101;29673;-84
2021/05/23 02:56:27;;;;;;;2.58;0.90;;;;;;;8.36;77.30;96414.20;127726;1101;23910;-86
2021/05/23 02:58:57;;;;;;;1.83;1.20;;;;;;;8.44;76.80;96417.07;127714;1101;24502;-85
2021/05/23 03:01:27;;;;;;;1.03;0.70;;;;;;;8.51;76.72;96424.73;127750;1101;27416;-86
2021/05/23 03:03:57;;;;;;;3.08;0.95;;;;;;;8.56;76.54;96422.06;127762;1101;27701;-86
2021/05/23 03:06:27;;;;;;;2.60;1.00;;;;;;;8.64;76.30;96421.52;127735;1101;24759;-86
2021/05/23 03:08:57;;;;;;;1.45;0.93;;;;;;;8.68;76.32;96427.05;127837;1101;22776;-86
2021/05/23 03:11:27;;;;;;;1.20;0.85;;;;;;;8.74;76.19;96432.05;127754;1101;23362;-90
2021/05/23 03:13:57;;;;;;;3.15;1.10;;;;;;;8.80;75.72;96436.25;127628;1097;26229;-87
2021/05/23 03:16:27;;;;;;;1.80;1.00;;;;;;;8.84;76.03;96442.56;127692;1101;22945;-85
2021/05/23 03:18:56;;;;;;;1.75;0.88;;;;;;;8.87;75.54;96443.91;127678;1101;25704;-85
2021/05/23 03:21:26;;;;;;;3.83;1.40;;;;;;;8.92;75.20;96454.45;127707;1101;23232;-85
2021/05/23 03:23:56;;;;;;;4.63;1.60;;;;;;;8.97;74.97;96457.06;127780;1101;23177;-87
2021/05/23 03:26:26;;;;;;;3.35;1.30;;;;;;;9.02;74.67;96459.70;127742;1101;24430;-86
2021/05/23 03:28:56;;;;;;;3.40;0.98;;;;;;;9.10;74.72;96464.41;127799;1096;25612;-86
2021/05/23 03:31:26;;;;;;;1.43;0.90;;;;;;;9.15;74.34;96461.75;127786;1101;43604;-85
2021/05/23 03:33:56;;;;;;;2.08;1.08;;;;;;;9.23;74.13;96455.09;127737;1097;29613;-85
2021/05/23 03:36:26;;;;;;;1.73;0.80;;;;;;;9.30;74.08;96470.67;127832;1096;30539;-85
2021/05/23 03:38:56;;;;;;;2.68;1.25;;;;;;;9.34;73.93;96461.13;127797;1101;35710;-85
2021/05/23 03:41:26;;;;;;;1.68;0.90;;;;;;;9.39;73.50;96461.87;127767;1101;30895;-86
2021/05/23 03:43:56;;;;;;;1.38;0.90;;;;;;;9.44;73.37;96461.07;127767;1096;23933;-86
2021/05/23 03:46:26;;;;;;;2.55;0.95;;;;;;;9.53;73.25;96454.90;127739;1101;23623;-87
2021/05/23 03:49:05;;;;;;;2.28;1.00;;;;;;;9.58;72.86;96462.03;127676;1101;32324;-84
2021/05/23 03:51:35;;;;;;;1.53;0.93;;;;;;;9.65;72.39;96456.42;127767;1101;23285;-86
2021/05/23 03:54:07;;;;;;;3.17;1.30;;;;;;;9.67;72.00;96454.28;127763;1096;27764;-85
2021/05/23 03:56:37;;;;;;;1.78;1.10;;;;;;;9.74;71.77;96447.63;127722;1101;23716;-86
2021/05/23 03:59:07;;;;;;;2.55;1.40;;;;;;;9.81;71.89;96444.65;127785;1101;29801;-85
2021/05/23 04:01:37;;;;;;;1.40;0.75;;;;;;;9.90;71.04;96453.59;127795;1101;28668;-86
2021/05/23 04:04:09;;;;;;;2.08;1.15;;;;;;;10.05;70.82;96448.16;127856;1101;22772;-85
2021/05/23 04:06:39;;;;;;;1.95;1.10;;;;;;;10.17;70.39;96449.66;127754;1101;24166;-85
2021/05/23 04:09:09;;;;;;;3.83;1.20;;;;;;;10.25;70.07;96443.77;127747;1101;28067;-84
2021/05/23 04:11:41;;;;;;;2.58;1.20;;;;;;;10.36;69.70;96450.55;127723;1101;31798;-85
2021/05/23 04:14:11;;;;;;;3.23;1.37;;;;;;;10.46;69.25;96447.81;127744;1101;31018;-84
2021/05/23 04:16:41;;;;;;;2.25;1.40;;;;;;;10.46;69.04;96444.38;127742;1101;23568;-84
2021/05/23 04:19:11;;;;;;;1.63;1.20;;;;;;;10.48;68.81;96437.72;127764;1101;23115;-85
2021/05/23 04:21:41;;;;;;;2.18;1.30;;;;;;;10.49;68.52;96443.80;127710;1101;24625;-86
2021/05/23 04:24:11;;;;;;;2.93;1.38;;;;;;;10.51;68.65;96446.95;127685;1097;26303;-85
2021/05/23 04:26:41;;;;;;;1.58;1.10;;;;;;;10.57;68.05;96445.85;127648;1101;30682;-87
2021/05/23 04:29:11;;;;;;;3.33;1.55;;;;;;;10.62;68.14;96443.92;127803;1097;23017;-85
2021/05/23 04:31:41;;;;;;;3.98;1.53;;;;;;;10.71;67.85;96438.80;127631;1101;34302;-86
2021/05/23 04:34:12;;;;;;;2.43;1.40;;;;;;;10.79;68.18;96440.02;127712;1101;30367;-85
2021/05/23 04:36:41;;;;;;;;;;;;;;;10.90;67.86;96444.14;127733;1101;23427;-87
2021/05/23 04:39:11;;;;;;;1.78;1.05;;;;;;;10.95;67.42;96446.72;127659;1101;26470;-85
2021/05/23 04:41:41;;;;;;;2.70;1.25;;;;;;;11.17;67.48;96443.54;127804;1096;23607;-85
2021/05/23 04:44:11;;;;;;;3.83;1.30;;;;;;;11.45;66.92;96439.17;127816;1096;27174;-86
2021/05/23 04:46:41;;;;;;;1.83;0.95;;;;;;;11.72;66.50;96433.99;127808;1101;22875;-87
2021/05/23 04:49:11;;;;;;;2.68;1.00;;;;;;;12.14;65.24;96435.73;127432;1103;23104;-86
2021/05/23 04:51:41;;;;;;;2.40;1.00;;;;;;;13.28;64.57;96433.30;127399;1104;22803;-86
2021/05/23 04:54:11;;;;;;;3.13;1.30;;;;;;;14.25;62.80;96439.83;127452;1102;23113;-87
2021/05/23 04:56:41;;;;;;;2.73;1.50;;;;;;;15.10;59.53;96435.16;127704;1096;29730;-86
2021/05/23 04:59:11;;;;;;;2.75;1.05;;;;;;;15.40;58.37;96431.59;127749;1101;25402;-88
2021/05/23 05:01:41;;;;;;;3.23;1.30;;;;;;;15.79;57.14;96434.47;127674;1101;30975;-86
2021/05/23 05:04:11;;;;;;;1.33;1.00;;;;;;;15.89;55.03;96432.23;127805;1096;26309;-86
2021/05/23 05:06:41;;;;;;;2.30;1.40;;;;;;;15.89;55.93;96434.91;127775;1097;28681;-86
2021/05/23 05:09:11;;;;;;;1.38;1.00;;;;;;;16.75;54.56;96438.50;127800;1101;22772;-86
2021/05/23 05:11:41;;;;;;;1.58;0.88;;;;;;;18.19;53.59;96436.27;127714;1101;32550;-87
2021/05/23 05:14:12;;;;;;;2.90;1.30;;;;;;;18.16;51.05;96439.63;127665;1101;22819;-85
2021/05/23 05:16:42;;;;;;;2.35;0.88;;;;;;;17.42;49.07;96432.30;127727;1101;23917;-87
2021/05/23 05:19:12;;;;;;;;;;;;;;;17.54;49.15;96436.95;127770;1101;24010;-86
2021/05/23 05:21:42;;;;;;;1.45;0.80;;;;;;;18.61;51.57;96428.08;127727;1101;26900;-87
2021/05/23 05:24:13;;;;;;;3.23;1.03;;;;;;;19.87;47.66;96434.26;127708;1101;26651;-86
2021/05/23 05:26:43;;;;;;;2.30;0.80;;;;;;;20.19;47.64;96437.03;127764;1101;28560;-87
2021/05/23 05:29:13;;;;;;;1.03;0.53;;;;;;;19.99;46.48;96444.20;127744;1101;25382;-86
2021/05/23 05:31:42;;;;;;;1.73;0.80;;;;;;;20.48;45.71;96441.28;127707;1101;28543;-88
2021/05/23 05:34:12;;;;;;;2.65;1.20;;;;;;;20.72;45.24;96433.05;127753;1101;24848;-86
2021/05/23 05:36:43;;;;;;;3.18;1.43;;;;;;;20.92;44.94;96442.77;127762;1101;37143;-88
2021/05/23 05:39:13;;;;;;;1.60;1.00;;;;;;;22.07;45.58;96446.06;127719;1101;23265;-89
2021/05/23 05:41:43;;;;;;;1.20;0.80;;;;;;;22.05;42.03;96443.73;127797;1101;25150;-87
2021/05/23 05:44:14;;;;;;;2.50;1.03;;;;;;;22.64;41.37;96441.70;127718;1101;24684;-86
2021/05/23 05:46:44;;;;;;;1.35;1.00;;;;;;;22.62;39.31;96441.29;127643;1101;26261;-89
2021/05/23 05:49:13;;;;;;;2.03;0.70;;;;;;;21.59;39.19;96442.77;127748;1101;40894;-89
2021/05/23 05:51:44;;;;;;;3.28;0.70;;;;;;;21.05;40.41;96446.15;127696;1101;25092;-89
2021/05/23 05:54:14;;;;;;;2.08;0.65;;;;;;;20.76;38.65;96444.69;127755;1096;24010;-89
2021/05/23 05:56:44;;;;;;;2.23;0.90;;;;;;;19.90;39.83;96449.71;127753;1101;29349;-89
2021/05/23 05:59:14;;;;;;;1.78;0.60;;;;;;;18.99;41.54;96447.36;127742;1101;25161;-87
2021/05/23 06:01:44;;;;;;;1.85;0.60;;;;;;;18.14;42.37;96441.82;127742;1101;23442;-89
2021/05/23 06:04:14;;;;;;;1.95;0.70;;;;;;;17.68;43.85;96438.28;127745;1101;22812;-86
2021/05/23 06:06:44;;;;;;;2.40;0.88;;;;;;;17.51;44.65;96446.44;127783;1101;25818;-87
2021/05/23 06:09:15;;;;;;;1.83;0.57;;;;;;;17.79;44.45;96441.36;127808;1101;23438;-87
2021/05/23 06:11:45;;;;;;;1.00;0.70;;;;;;;17.48;44.58;96439.05;127735;1101;40580;-89
2021/05/23 06:14:15;;;;;;;0.88;0.48;;;;;;;16.81;45.87;96443.38;127707;1101;29949;-90
2021/05/23 06:16:45;;;;;;;1.68;0.78;;;;;;;16.08;46.96;96447.97;127785;1101;22965;-89
2021/05/23 06:19:15;;;;;;;2.45;1.08;;;;;;;15.58;48.33;96469.01;127633;1101;34607;-89
2021/05/23 06:21:46;;;;;;;1.00;0.70;;;;;;;15.22;49.00;96456.72;127734;1096;26417;-85
2021/05/23 06:24:17;;;;;;;1.55;0.80;;;;;;;15.03;50.24;96458.84;127605;1097;26236;-87
2021/05/23 06:26:47;;;;;;;2.43;0.85;;;;;;;14.86;50.59;96459.59;127803;1101;22805;-88
2021/05/23 06:29:17;;;;;;;1.88;0.58;;;;;;;14.76;51.04;96468.64;127728;1101;25831;-89
2021/05/23 06:31:47;;;;;;;2.33;0.93;;;;;;;14.68;51.23;96464.08;127814;1101;32031;-88
2021/05/23 06:34:17;;;;;;;1.83;0.73;;;;;;;14.80;51.72;96466.95;127702;1096;29507;-88
2021/05/23 06:36:47;;;;;;;0.95;0.80;;;;;;;14.90;51.85;96465.08;127731;1101;30800;-88
2021/05/23 06:39:17;;;;;;;1.93;0.48;;;;;;;14.93;51.67;96453.81;127757;1101;24374;-86
2021/05/23 06:41:47;;;;;;;2.20;0.60;;;;;;;14.96;52.39;96447.84;127752;1101;30561;-86
2021/05/23 06:44:18;;;;;;;1.95;0.88;;;;;;;14.84;51.58;96465.23;127758;1101;26020;-90
2021/05/23 06:46:48;;;;;;;1.83;0.90;;;;;;;14.70;51.93;96467.22;127801;1101;23854;-88
2021/05/23 06:49:20;;;;;;;1.20;0.90;;;;;;;14.75;52.47;96459.06;127812;1096;27409;-86
2021/05/23 06:51:50;;;;;;;1.88;0.75;;;;;;;14.87;51.89;96452.36;127736;1101;24419;-87
2021/05/23 06:54:20;;;;;;;3.03;0.73;;;;;;;14.84;51.79;96462.56;127806;1101;24165;-86
2021/05/23 06:56:50;;;;;;;1.60;0.98;;;;;;;14.97;52.51;96465.44;127829;1101;22757;-88
2021/05/23 06:59:21;;;;;;;1.33;0.65;;;;;;;15.04;51.51;96463.88;127776;1096;32000;-90
2021/05/23 07:01:51;;;;;;;1.20;1.10;;;;;;;15.25;51.95;96469.44;127757;1101;27620;-88
2021/05/23 07:04:20;;;;;;;;;;;;;;;15.32;51.74;96469.75;127786;1096;40460;-87
2021/05/23 07:06:51;;;;;;;1.70;0.80;;;;;;;15.40;51.71;96463.66;127780;1101;29991;-88
2021/05/23 07:09:21;;;;;;;1.68;0.85;;;;;;;15.25;52.20;96473.99;127846;1101;24128;-89
2021/05/23 07:11:51;;;;;;;1.55;0.90;;;;;;;15.03;52.53;96474.86;127788;1101;23970;-86
2021/05/23 07:14:21;;;;;;;1.60;0.93;;;;;;;15.02;52.82;96473.30;127752;1101;27724;-91
2021/05/23 07:16:51;;;;;;;2.38;0.90;;;;;;;14.93;52.99;96480.50;127796;1101;24858;-91
2021/05/23 07:19:21;;;;;;;0.90;0.70;;;;;;;14.90;52.38;96478.43;127674;1101;25305;-92
2021/05/23 07:21:50;;;;;;;;;;;;;;;14.80;52.62;96477.63;127742;1101;23277;-87
2021/05/23 07:24:20;;;;;;;1.38;0.75;;;;;;;14.80;52.50;96479.52;127731;1101;31169;-89
2021/05/23 07:26:50;;;;;;;3.03;0.78;;;;;;;14.92;52.94;96487.73;127803;1101;23011;-86
2021/05/23 07:29:20;;;;;;;1.63;0.80;;;;;;;15.11;52.17;96479.45;127543;1101;31393;-86
2021/05/23 07:31:51;;;;;;;2.23;0.90;;;;;;;15.29;52.06;96477.61;127738;1101;24225;-87
2021/05/23 07:34:21;;;;;;;1.75;0.88;;;;;;;15.59;52.08;96479.41;127731;1096;26610;-86
2021/05/23 07:36:51;;;;;;;1.95;1.00;;;;;;;15.79;51.66;96482.59;127757;1101;33998;-91
2021/05/23 07:39:22;;;;;;;1.65;0.83;;;;;;;15.97;50.37;96476.91;127779;1101;32369;-90
2021/05/23 07:41:52;;;;;;;3.00;0.70;;;;;;;16.25;50.59;96469.33;127838;1101;25443;-88
2021/05/23 07:44:22;;;;;;;3.30;1.10;;;;;;;16.68;50.46;96475.70;127748;1101;28618;-87
2021/05/23 07:46:52;;;;;;;2.33;0.77;;;;;;;17.16;51.02;96470.75;127752;1096;25890;-88
2021/05/23 07:49:22;;;;;;;1.88;1.00;;;;;;;17.38;48.99;96468.91;127651;1101;31480;-90
2021/05/23 07:51:52;;;;;;;1.18;1.00;;;;;;;17.91;47.65;96475.50;127771;1101;24428;-87
2021/05/23 07:54:22;;;;;;;1.58;0.80;;;;;;;18.63;48.21;96474.17;127860;1101;32920;-89
2021/05/23 07:56:53;;;;;;;1.88;0.70;;;;;;;19.52;45.98;96480.48;127798;1101;33716;-92
2021/05/23 07:59:23;;;;;;;1.25;0.85;;;;;;;19.92;44.13;96471.67;127832;1101;28380;-91
2021/05/23 08:01:53;;;;;;;1.83;0.88;;;;;;;19.29;42.07;96465.96;127785;1101;25166;-86
2021/05/23 08:04:23;;;;;;;1.40;0.70;;;;;;;18.67;45.27;96461.67;127731;1101;28663;-91
2021/05/23 08:06:54;;;;;;;1.00;0.65;;;;;;;18.53;44.45;96469.22;127723;1101;25648;-88
2021/05/23 08:09:24;;;;;;;2.55;1.08;;;;;;;18.62;45.62;96461.87;127744;1101;25605;-87
2021/05/23 08:11:53;;;;;;;1.43;0.78;;;;;;;19.18;44.28;96465.63;127698;1101;24777;-88
2021/05/23 08:14:24;;;;;;;1.38;0.83;;;;;;;19.99;43.54;96458.44;127686;1101;34778;-87
2021/05/23 08:16:54;;;;;;;1.93;1.00;;;;;;;20.76;43.78;96458.16;127799;1101;26468;-92
2021/05/23 08:19:24;;;;;;;2.08;0.75;;;;;;;21.74;42.32;96449.23;127790;1101;33468;-91
2021/05/23 08:21:54;;;;;;;2.10;1.10;;;;;;;21.72;40.67;96446.90;127809;1101;30366;-89
2021/05/23 08:24:24;;;;;;;2.73;0.85;;;;;;;22.13;39.83;96445.44;127783;1101;27072;-89
2021/05/23 08:26:54;;;;;;;1.23;0.80;;;;;;;22.16;38.91;96439.31;127796;1101;31483;-88
2021/05/23 08:29:25;;;;;;;2.50;0.90;;;;;;;22.53;39.67;96440.77;127771;1101;25809;-88
2021/05/23 08:31:55;;;;;;;1.45;0.90;;;;;;;22.91;39.49;96443.34;127744;1101;24751;-87
2021/05/23 08:34:25;;;;;;;1.43;0.60;;;;;;;23.33;38.22;96451.34;127800;1101;28078;-88
2021/05/23 08:36:55;;;;;;;1.68;0.80;;;;;;;23.30;36.85;96445.88;127776;1101;28462;-92
2021/05/23 08:39:25;;;;;;;0.60;0.45;;;;;;;23.79;37.89;96447.72;127800;1096;24220;-92
2021/05/23 08:41:55;;;;;;;1.65;0.70;;;;;;;23.64;35.33;96447.53;127743;1101;24623;-90
2021/05/23 08:44:26;;;;;;;1.43;0.50;;;;;;;22.90;38.15;96438.30;127744;1101;24229;-91
2021/05/23 08:46:56;;;;;;;1.13;0.73;;;;;;;22.47;36.91;96438.34;127724;1096;28480;-89
2021/05/23 08:49:28;;;;;;;1.20;0.73;;;;;;;22.57;38.14;96436.19;127729;1101;29292;-89
2021/05/23 08:51:59;;;;;;;3.18;1.03;;;;;;;23.43;36.99;96443.75;127736;1096;53044;-88
2021/05/23 08:54:30;;;;;;;1.15;0.80;;;;;;;24.66;37.75;96438.27;127769;1101;24793;-88
2021/05/23 08:57:01;;;;;;;2.65;1.00;;;;;;;25.59;35.11;96438.95;127735;1096;27249;-87
2021/05/23 08:59:31;;;;;;;1.18;0.68;;;;;;;24.97;33.32;96436.20;127851;1101;25883;-88
2021/05/23 09:02:06;;;;;;;1.25;0.60;;;;;;;23.87;33.57;96433.91;127840;1101;25892;-88
2021/05/23 09:04:46;;;;;;;2.93;0.98;;;;;;;23.42;34.51;96436.78;127784;1101;25353;-91
2021/05/23 09:07:17;;;;;;;1.63;0.68;;;;;;;22.16;36.91;96428.52;127764;1101;22793;-87
2021/05/23 09:09:46;;;;;;;;;;;;;;;21.80;38.01;96427.00;127809;1101;26280;-89
2021/05/23 09:12:19;;;;;;;2.25;1.03;;;;;;;21.58;39.09;96425.80;127724;1094;35282;-88
2021/05/23 09:14:52;;;;;;;1.23;0.50;;;;;;;21.54;37.71;96424.17;127507;1101;25744;-92
2021/05/23 09:17:25;;;;;;;2.53;0.93;;;;;;;21.01;38.88;96434.52;127742;1097;32276;-88
2021/05/23 09:19:56;;;;;;;1.13;0.70;;;;;;;20.69;39.60;96418.37;127782;1101;24801;-90
2021/05/23 09:22:29;;;;;;;1.48;0.83;;;;;;;20.06;39.02;96418.25;127690;1096;22955;-88
2021/05/23 09:25:01;;;;;;;0.85;0.45;;;;;;;19.32;40.12;96427.64;127424;1096;26066;-91
2021/05/23 09:27:33;;;;;;;2.43;0.70;;;;;;;19.01;40.97;96427.46;127757;1101;31234;-89
2021/05/23 09:30:11;;;;;;;1.93;0.80;;;;;;;18.71;40.75;96419.59;127809;1101;26221;-88
2021/05/23 09:32:44;;;;;;;2.68;0.78;;;;;;;18.69;41.78;96429.89;127882;1101;33845;-88
2021/05/23 09:35:15;;;;;;;3.23;0.90;;;;;;;18.77;41.41;96428.23;127850;1101;25495;-90
2021/05/23 09:37:57;;;;;;;2.60;0.80;;;;;;;18.60;41.96;96429.98;127767;1101;29094;-87
2021/05/23 09:40:31;;;;;;;2.53;0.90;;;;;;;18.44;42.27;96429.06;127710;1101;25430;-90
2021/05/23 09:43:02;;;;;;;2.08;0.80;;;;;;;18.22;42.10;96434.81;127700;1096;28408;-87
2021/05/23 09:45:44;;;;;;;2.30;0.80;;;;;;;18.06;43.16;96431.98;127671;1101;23839;-86
2021/05/23 09:48:21;;;;;;;1.53;0.73;;;;;;;18.02;42.70;96423.81;127766;1101;23459;-87
2021/05/23 09:51:11;;;;;;;1.50;0.63;;;;;;;17.92;43.16;96420.75;127733;1101;23235;-88
2021/05/23 09:53:42;;;;;;;3.87;1.50;;;;;;;17.89;44.27;96429.45;127688;1101;25039;-89
2021/05/23 09:56:15;;;;;;;2.80;1.08;;;;;;;17.72;43.92;96425.79;127658;1097;27236;-87
2021/05/23 09:58:48;;;;;;;2.95;1.25;;;;;;;17.87;44.59;96428.98;127618;1101;22806;-88
2021/05/23 10:01:28;;;;;;;1.80;0.98;;;;;;;17.99;43.94;96432.50;127668;1101;28785;-89
2021/05/23 10:04:00;;;;;;;1.40;0.93;;;;;;;17.87;44.30;96437.80;127703;1097;44109;-90
2021/05/23 10:06:33;;;;;;;2.47;1.03;;;;;;;17.74;44.71;96431.63;127764;1101;29442;-88
2021/05/23 10:09:07;;;;;;;2.87;1.20;;;;;;;17.91;44.92;96430.70;127715;1101;25103;-88
2021/05/23 10:11:37;;;;;;;2.00;1.00;;;;;;;17.83;43.99;96436.91;127855;1101;24427;-88
2021/05/23 10:14:07;;;;;;;0.68;0.50;;;;;;;17.62;44.31;96438.80;127846;1101;73233;-87
2021/05/23 10:16:37;;;;;;;2.38;0.63;;;;;;;17.36;43.88;96441.66;127868;1101;23230;-89
2021/05/23 10:19:09;;;;;;;1.60;0.80;;;;;;;17.28;45.01;96439.80;127795;1096;24252;-87
2021/05/23 10:21:39;;;;;;;1.50;0.60;;;;;;;17.27;44.96;96449.73;127815;1101;23117;-86
2021/05/23 10:24:10;;;;;;;0.83;0.80;;;;;;;17.19;45.91;96446.02;127782;1101;28238;-87
2021/05/23 10:26:43;;;;;;;3.93;1.23;;;;;;;17.10;46.47;96453.31;127797;1101;28283;-88
2021/05/23 10:29:13;;;;;;;2.35;0.93;;;;;;;16.99;45.56;96452.09;127810;1101;25423;-88
2021/05/23 10:31:43;;;;;;;2.30;1.45;;;;;;;16.85;47.03;96459.56;127833;1101;24618;-88
2021/05/23 10:34:14;;;;;;;2.58;0.88;;;;;;;16.78;46.33;96467.33;127826;1096;30104;-88
2021/05/23 10:36:46;;;;;;;1.88;1.00;;;;;;;16.81;46.49;96470.14;127815;1101;22852;-88
2021/05/23 10:39:17;;;;;;;3.40;0.80;;;;;;;16.86;46.55;96469.17;127802;1101;31718;-89
2021/05/23 10:41:47;;;;;;;1.43;0.70;;;;;;;16.85;45.71;96471.06;127771;1101;32853;-88
2021/05/23 10:44:17;;;;;;;1.05;0.48;;;;;;;16.83;45.36;96470.60;127747;1101;25067;-89
2021/05/23 10:46:50;;;;;;;1.10;0.60;;;;;;;16.73;45.41;96470.16;127728;1101;24710;-88
2021/05/23 10:49:20;;;;;;;1.88;0.55;;;;;;;16.52;44.91;96480.77;127695;1101;22840;-89
2021/05/23 10:51:56;;;;;;;3.33;0.97;;;;;;;16.21;45.50;96476.42;127644;1101;23086;-85
2021/05/23 10:54:26;;;;;;;2.13;0.50;;;;;;;16.18;44.88;96473.58;127857;1101;23829;-89
2021/05/23 10:57:06;;;;;;;1.15;0.43;;;;;;;16.20;43.82;96464.16;127805;1101;30340;-86
2021/05/23 10:59:37;;;;;;;2.70;0.65;;;;;;;16.25;44.38;96463.19;127840;1101;25404;-86
2021/05/23 11:02:09;;;;;;;1.00;0.60;;;;;;;16.44;45.19;96455.58;127857;1101;26036;-88
2021/05/23 11:04:40;;;;;;;1.93;0.60;;;;;;;16.67;44.96;96464.21;127810;1101;35940;-87
2021/05/23 11:07:13;;;;;;;1.35;0.50;;;;;;;16.86;45.60;96461.92;127717;1101;26462;-87
2021/05/23 11:09:43;;;;;;;1.43;0.60;;;;;;;17.01;45.07;96460.59;127709;1101;26101;-88
2021/05/23 11:12:14;;;;;;;;;;;;;;;17.05;44.90;96463.43;127757;1101;25926;-87
2021/05/23 11:14:55;;;;;;;3.38;0.78;;;;;;;16.85;44.33;96464.92;127852;1101;26605;-87
2021/05/23 11:17:24;;;;;;;;;;;;;;;16.69;43.24;96469.24;127830;1101;25275;-88
2021/05/23 11:19:54;;;;;;;0.68;0.40;;;;;;;16.49;43.89;96473.38;127765;1101;24525;-86
2021/05/23 11:22:25;;;;;;;1.85;0.40;;;;;;;16.26;42.52;96483.48;127756;1101;23218;-86
2021/05/23 11:24:56;;;;;;;2.75;0.50;;;;;;;15.91;42.05;96496.90;127819;1101;27526;-87
2021/05/23 11:27:26;;;;;;;2.10;0.53;;;;;;;15.48;42.34;96496.02;127810;1101;25969;-87
2021/05/23 11:29:57;;;;;;;0.80;0.40;;;;;;;15.06;42.95;96498.27;127745;1097;26229;-88
2021/05/23 11:32:28;;;;;;;0.63;0.30;;;;;;;14.64;43.88;96487.14;127727;1101;28201;-88
2021/05/23 11:34:58;;;;;;;1.98;0.48;;;;;;;14.35;43.56;96484.09;127703;1101;23849;-91
2021/05/23 11:37:41;;;;;;;2.07;0.40;;;;;;;14.24;46.33;96495.03;127757;1101;31510;-90
2021/05/23 11:40:14;;;;;;;0.30;0.30;;;;;;;13.82;49.63;96482.19;127736;1101;25131;-85
2021/05/23 11:42:44;;;;;;;0.20;0.20;;;;;;;13.41;52.22;96488.41;127564;1101;43970;-85
2021/05/23 11:45:25;;;;;;;0.85;0.30;;;;;;;13.14;55.59;96493.73;127650;1101;24458;-86
2021/05/23 11:47:56;;;;;;;0.70;0.25;;;;;;;13.02;52.97;96505.66;127810;1096;27645;-85